Time;durP1;ratioP1;P1;durP2;ratioP2;P2;SDS_P1;SDS_P2;PMS_P1;PMS_P2;Temp;Humidity;BMP_temperature;BMP_pressure;BME280_temperature;BME280_humidity;BME280_pressure;Samples;Min_cycle;Max_cycle;Signal;HPM_P1;HPM_P2
2023/04/18 00:00:35;;;;;;;;;;;;;;;11.05;81.03;102485.25;7361191;19;19919;-66
2023/04/18 00:03:02;;;;;;;;;;;;;;;11.06;80.73;102486.94;7358903;19;19915;-65
2023/04/18 00:05:30;;;;;;;;;;;;;;;11.06;81.23;102480.81;7360957;19;20222;-66
2023/04/18 00:07:57;;;;;;;;;;;;;;;11.05;81.42;102481.78;7357429;19;20309;-65
2023/04/18 00:10:24;;;;;;;;;;;;;;;11.06;81.99;102479.03;7361046;19;19922;-67
2023/04/18 00:12:51;;;;;;;;;;;;;;;11.06;81.75;102468.50;7356906;19;19922;-65
2023/04/18 00:15:18;;;;;;;;;;;;;;;11.10;81.57;102475.22;7358646;19;19915;-66
2023/04/18 00:17:46;;;;;;;;;;;;;;;11.17;81.51;102474.75;7353364;19;19922;-64
2023/04/18 00:20:14;;;;;;;;;;;;;;;11.24;82.63;102481.22;7358750;19;19922;-65
2023/04/18 00:22:41;;;;;;;;;;;;;;;11.28;81.21;102482.66;7355693;19;20716;-65
2023/04/18 00:25:09;;;;;;;;;;;;;;;11.30;81.73;102478.13;7358721;19;21615;-65
2023/04/18 00:27:37;;;;;;;;;;;;;;;11.29;82.19;102482.56;7353498;19;20276;-65
2023/04/18 00:30:05;;;;;;;;;;;;;;;11.30;82.11;102486.88;7357306;19;20010;-66
2023/04/18 00:32:34;;;;;;;;;;;;;;;11.29;81.89;102479.06;7354565;19;19934;-66
2023/04/18 00:35:02;;;;;;;;;;;;;;;11.30;81.46;102483.41;7356385;19;19935;-65
2023/04/18 00:37:30;;;;;;;;;;;;;;;11.29;81.93;102484.34;7354237;19;19953;-64
2023/04/18 00:39:57;;;;;;;;;;;;;;;11.28;82.32;102483.50;7357418;19;19934;-65
2023/04/18 00:42:26;;;;;;;;;;;;;;;11.29;82.29;102481.72;7357930;19;19934;-65
2023/04/18 00:44:53;;;;;;;;;;;;;;;11.23;82.35;102484.81;7357883;19;21187;-65
2023/04/18 00:47:20;;;;;;;;;;;;;;;11.08;83.01;102492.06;7354670;19;19961;-65
2023/04/18 00:49:48;;;;;;;;;;;;;;;11.11;83.52;102476.91;7355278;19;19923;-65
2023/04/18 00:52:15;;;;;;;;;;;;;;;11.10;84.44;102487.53;7355434;19;20622;-65
2023/04/18 00:54:43;;;;;;;;;;;;;;;11.05;84.66;102479.13;7356634;19;20109;-65
2023/04/18 00:57:11;;;;;;;;;;;;;;;11.00;84.70;102476.84;7355503;19;20502;-65
2023/04/18 00:59:38;;;;;;;;;;;;;;;11.04;84.45;102477.47;7357553;19;19919;-66
2023/04/18 01:02:05;;;;;;;;;;;;;;;10.98;83.97;102477.91;7354728;19;20198;-65
2023/04/18 01:04:32;;;;;;;;;;;;;;;10.94;83.90;102474.69;7355092;19;19932;-68
2023/04/18 01:06:59;;;;;;;;;;;;;;;10.96;84.25;102471.94;7354681;19;20333;-64
2023/04/18 01:09:26;;;;;;;;;;;;;;;10.94;84.19;102465.94;7356203;19;19919;-64
2023/04/18 01:11:53;;;;;;;;;;;;;;;10.97;85.10;102463.91;7356756;19;20307;-66
2023/04/18 01:14:21;;;;;;;;;;;;;;;10.96;85.70;102461.41;7356672;19;19991;-65
2023/04/18 01:16:47;;;;;;;;;;;;;;;11.01;86.91;102460.09;7355143;19;19919;-65
2023/04/18 01:19:16;;;;;;;;;;;;;;;11.04;85.10;102461.66;7353285;19;20003;-64
2023/04/18 01:21:43;;;;;;;;;;;;;;;11.06;85.18;102460.59;7357400;19;20215;-64
2023/04/18 01:24:13;;;;;;;;;;;;;;;11.05;85.43;102455.44;7349229;19;20355;-65
2023/04/18 01:26:44;;;;;;;;;;;;;;;11.09;85.84;102454.25;7356993;19;19919;-65
2023/04/18 01:29:11;;;;;;;;;;;;;;;11.09;85.55;102460.34;7355389;19;20475;-65
2023/04/18 01:31:39;;;;;;;;;;;;;;;11.12;84.85;102449.56;7358309;19;19922;-65
2023/04/18 01:34:06;;;;;;;;;;;;;;;11.17;84.77;102445.78;7361378;19;20517;-65
2023/04/18 01:36:35;;;;;;;;;;;;;;;11.15;86.27;102445.88;7360779;19;19919;-64
2023/04/18 01:39:02;;;;;;;;;;;;;;;11.14;86.43;102442.41;7360436;19;19923;-63
2023/04/18 01:41:31;;;;;;;;;;;;;;;11.19;85.80;102444.69;7361617;19;19982;-66
2023/04/18 01:43:58;;;;;;;;;;;;;;;11.18;86.03;102440.38;7362882;19;19919;-65
2023/04/18 01:46:26;;;;;;;;;;;;;;;11.19;85.32;102444.69;7360032;19;20312;-66
2023/04/18 01:48:53;;;;;;;;;;;;;;;11.18;84.25;102435.09;7361474;19;20372;-67
2023/04/18 01:51:21;;;;;;;;;;;;;;;11.19;83.98;102439.41;7360779;19;19954;-65
2023/04/18 01:53:48;;;;;;;;;;;;;;;11.18;83.88;102429.84;7362536;19;19918;-65
2023/04/18 01:56:15;;;;;;;;;;;;;;;11.15;83.81;102432.72;7358995;19;20329;-66
2023/04/18 01:58:41;;;;;;;;;;;;;;;11.14;84.33;102426.59;7363351;19;19926;-65
2023/04/18 02:01:08;;;;;;;;;;;;;;;11.07;84.28;102425.38;7361349;19;20398;-66
2023/04/18 02:03:35;;;;;;;;;;;;;;;10.98;84.37;102431.34;7361853;19;19917;-65
2023/04/18 02:06:03;;;;;;;;;;;;;;;10.97;84.67;102442.81;7361278;19;21903;-69
2023/04/18 02:08:34;;;;;;;;;;;;;;;10.97;84.99;102432.28;7359057;19;19915;-65
2023/04/18 02:11:01;;;;;;;;;;;;;;;10.96;85.09;102440.34;7360119;19;19978;-65
2023/04/18 02:13:30;;;;;;;;;;;;;;;10.98;85.50;102430.50;7363010;19;19922;-66
2023/04/18 02:15:57;;;;;;;;;;;;;;;11.01;84.82;102432.94;7359877;19;19926;-65
2023/04/18 02:18:28;;;;;;;;;;;;;;;11.04;85.21;102440.59;7360839;19;19926;-65
2023/04/18 02:20:55;;;;;;;;;;;;;;;11.08;85.93;102431.50;7359838;19;19918;-64
2023/04/18 02:23:22;;;;;;;;;;;;;;;11.10;85.00;102443.59;7360758;19;19934;-64
2023/04/18 02:25:49;;;;;;;;;;;;;;;11.12;84.40;102436.41;7359677;19;21367;-65
2023/04/18 02:28:16;;;;;;;;;;;;;;;11.11;83.72;102431.28;7359573;19;19927;-65
2023/04/18 02:30:43;;;;;;;;;;;;;;;11.11;84.00;102432.13;7360389;19;19929;-64
2023/04/18 02:33:10;;;;;;;;;;;;;;;11.12;84.23;102430.31;7359043;19;19929;-65
2023/04/18 02:35:37;;;;;;;;;;;;;;;11.13;84.62;102435.44;7360319;19;19925;-65
2023/04/18 02:38:04;;;;;;;;;;;;;;;11.14;84.15;102431.03;7359410;19;19922;-66
2023/04/18 02:40:31;;;;;;;;;;;;;;;11.15;84.16;102430.06;7360406;19;19915;-64
2023/04/18 02:42:58;;;;;;;;;;;;;;;11.17;84.32;102420.28;7357320;19;20257;-67
2023/04/18 02:45:25;;;;;;;;;;;;;;;11.18;84.91;102427.19;7364348;19;19914;-64
2023/04/18 02:47:52;;;;;;;;;;;;;;;11.21;85.54;102424.34;7355539;19;19917;-66
2023/04/18 02:50:22;;;;;;;;;;;;;;;11.23;84.42;102417.16;7361327;19;19953;-66
2023/04/18 02:52:49;;;;;;;;;;;;;;;11.23;85.01;102421.56;7357903;19;19915;-64
2023/04/18 02:55:17;;;;;;;;;;;;;;;11.24;85.66;102425.88;7359398;19;19922;-66
2023/04/18 02:57:43;;;;;;;;;;;;;;;11.21;85.20;102420.88;7358564;19;19951;-66
2023/04/18 03:00:12;;;;;;;;;;;;;;;11.17;85.30;102422.91;7362019;19;19915;-66
2023/04/18 03:02:39;;;;;;;;;;;;;;;11.18;85.62;102424.56;7336320;19;19915;-66
2023/04/18 03:05:06;;;;;;;;;;;;;;;11.13;84.94;102410.91;7339498;19;20481;-64
2023/04/18 03:07:34;;;;;;;;;;;;;;;11.11;84.44;102412.84;7351417;19;19929;-64
2023/04/18 03:10:00;;;;;;;;;;;;;;;11.11;84.10;102412.84;7355812;19;20325;-64
2023/04/18 03:12:27;;;;;;;;;;;;;;;11.05;84.32;102408.88;7357680;19;19923;-65
2023/04/18 03:14:54;;;;;;;;;;;;;;;11.02;85.45;102403.81;7357941;19;19950;-65
2023/04/18 03:17:21;;;;;;;;;;;;;;;11.04;85.72;102407.19;7355337;19;19918;-65
2023/04/18 03:19:48;;;;;;;;;;;;;;;10.99;85.99;102403.22;7358247;19;19943;-65
2023/04/18 03:22:15;;;;;;;;;;;;;;;11.08;84.82;102410.41;7356153;19;19944;-65
2023/04/18 03:24:42;;;;;;;;;;;;;;;11.05;83.67;102408.03;7360046;19;20513;-64
2023/04/18 03:27:10;;;;;;;;;;;;;;;11.02;83.64;102410.91;7357733;19;19918;-65
2023/04/18 03:29:37;;;;;;;;;;;;;;;11.01;84.03;102407.44;7354417;19;19943;-65
2023/04/18 03:32:04;;;;;;;;;;;;;;;10.99;84.10;102414.59;7357927;19;19957;-65
2023/04/18 03:34:31;;;;;;;;;;;;;;;10.98;84.41;102406.81;7354132;19;19930;-65
2023/04/18 03:36:58;;;;;;;;;;;;;;;10.93;84.52;102411.56;7358433;19;19926;-65
2023/04/18 03:39:25;;;;;;;;;;;;;;;10.93;84.98;102403.69;7355944;19;20593;-66
2023/04/18 03:41:52;;;;;;;;;;;;;;;10.94;85.28;102408.00;7357479;19;19911;-65
2023/04/18 03:44:21;;;;;;;;;;;;;;;10.92;84.95;102412.56;7359023;19;19998;-65
2023/04/18 03:46:49;;;;;;;;;;;;;;;10.92;84.54;102413.38;7355935;19;19923;-66
2023/04/18 03:49:15;;;;;;;;;;;;;;;10.83;83.96;102410.59;7349833;19;19921;-65
2023/04/18 03:51:46;;;;;;;;;;;;;;;10.86;84.11;102413.84;7357551;19;19918;-65
2023/04/18 03:54:14;;;;;;;;;;;;;;;10.88;84.43;102411.09;7355946;19;20166;-65
2023/04/18 03:56:41;;;;;;;;;;;;;;;10.93;84.32;102414.22;7356245;19;19926;-65
2023/04/18 03:59:08;;;;;;;;;;;;;;;10.95;83.88;102407.88;7357569;19;20340;-66
2023/04/18 04:01:35;;;;;;;;;;;;;;;10.96;84.83;102406.09;7356656;19;20273;-66
2023/04/18 04:04:03;;;;;;;;;;;;;;;10.98;84.60;102404.16;7358170;19;19990;-65
2023/04/18 04:06:31;;;;;;;;;;;;;;;10.93;83.48;102404.53;7356301;19;19923;-65
2023/04/18 04:08:57;;;;;;;;;;;;;;;10.94;83.39;102402.72;7356024;19;19922;-65
2023/04/18 04:11:24;;;;;;;;;;;;;;;10.93;83.12;102401.88;7357835;19;20241;-65
2023/04/18 04:13:52;;;;;;;;;;;;;;;10.91;83.11;102406.44;7357910;19;19927;-64
2023/04/18 04:16:19;;;;;;;;;;;;;;;10.90;83.16;102409.19;7357764;19;20299;-65
2023/04/18 04:18:46;;;;;;;;;;;;;;;10.89;82.66;102410.13;7356078;19;19937;-65
2023/04/18 04:21:13;;;;;;;;;;;;;;;10.88;82.76;102401.38;7355531;19;20110;-65
2023/04/18 04:23:41;;;;;;;;;;;;;;;10.77;82.69;102403.19;7356910;19;20602;-65
2023/04/18 04:26:08;;;;;;;;;;;;;;;10.74;83.20;102406.88;7357289;19;20487;-66
2023/04/18 04:28:35;;;;;;;;;;;;;;;10.71;83.67;102407.94;7356173;19;19922;-66
2023/04/18 04:31:06;;;;;;;;;;;;;;;10.67;81.98;102408.25;7356590;19;19919;-64
2023/04/18 04:33:34;;;;;;;;;;;;;;;10.65;81.65;102410.19;7356362;19;19922;-65
2023/04/18 04:36:01;;;;;;;;;;;;;;;10.62;81.69;102395.44;7356029;19;20440;-64
2023/04/18 04:38:29;;;;;;;;;;;;;;;10.59;82.11;102390.41;7355923;19;19923;-65
2023/04/18 04:40:57;;;;;;;;;;;;;;;10.60;82.82;102386.84;7355748;19;19925;-65
2023/04/18 04:43:24;;;;;;;;;;;;;;;10.58;83.09;102386.09;7358366;19;19915;-65
2023/04/18 04:45:51;;;;;;;;;;;;;;;10.59;82.35;102389.56;7356265;19;19930;-63
2023/04/18 04:48:20;;;;;;;;;;;;;;;10.53;82.69;102390.03;7352447;19;19943;-65
2023/04/18 04:50:51;;;;;;;;;;;;;;;10.52;83.18;102385.72;7355020;19;20403;-64
2023/04/18 04:53:18;;;;;;;;;;;;;;;10.50;83.25;102390.28;7354039;19;19919;-64
2023/04/18 04:55:45;;;;;;;;;;;;;;;10.49;82.86;102394.69;7354659;19;19990;-68
2023/04/18 04:58:11;;;;;;;;;;;;;;;10.47;82.75;102401.84;7355046;19;19911;-64
2023/04/18 05:00:38;;;;;;;;;;;;;;;10.43;83.32;102400.41;7357010;19;19919;-65
2023/04/18 05:03:06;;;;;;;;;;;;;;;10.45;82.95;102400.28;7346985;19;19945;-64
2023/04/18 05:05:34;;;;;;;;;;;;;;;10.46;83.19;102401.97;7345914;19;20337;-66
2023/04/18 05:08:01;;;;;;;;;;;;;;;10.47;82.49;102395.75;7361986;19;19941;-64
2023/04/18 05:10:29;;;;;;;;;;;;;;;10.45;83.52;102392.41;7362938;19;19994;-65
2023/04/18 05:12:56;;;;;;;;;;;;;;;10.40;82.92;102397.16;7362524;19;21661;-64
2023/04/18 05:15:23;;;;;;;;;;;;;;;10.40;83.06;102407.69;7363890;19;20417;-65
2023/04/18 05:17:50;;;;;;;;;;;;;;;10.40;83.61;102410.31;7361823;19;19998;-65
2023/04/18 05:20:17;;;;;;;;;;;;;;;10.22;83.06;102408.06;7363227;19;20035;-64
2023/04/18 05:22:44;;;;;;;;;;;;;;;10.24;82.99;102405.34;7361864;19;20598;-65
2023/04/18 05:25:11;;;;;;;;;;;;;;;10.20;83.50;102399.47;7361470;19;19915;-65
2023/04/18 05:27:38;;;;;;;;;;;;;;;10.20;83.43;102414.41;7359864;19;19911;-64
2023/04/18 05:30:06;;;;;;;;;;;;;;;10.23;83.90;102409.75;7358953;19;19915;-65
2023/04/18 05:32:33;;;;;;;;;;;;;;;10.22;83.95;102418.59;7360665;19;20349;-65
2023/04/18 05:35:00;;;;;;;;;;;;;;;10.21;83.85;102403.75;7362740;19;19939;-65
2023/04/18 05:37:27;;;;;;;;;;;;;;;10.17;82.97;102396.19;7360719;19;19921;-65
2023/04/18 05:39:54;;;;;;;;;;;;;;;10.23;82.78;102403.66;7362666;19;19959;-65
2023/04/18 05:42:21;;;;;;;;;;;;;;;10.12;83.17;102391.25;7362999;19;19919;-65
2023/04/18 05:44:48;;;;;;;;;;;;;;;10.13;83.60;102397.34;7360183;19;19918;-66
2023/04/18 05:47:15;;;;;;;;;;;;;;;10.13;83.97;102398.19;7361831;19;21671;-64
2023/04/18 05:49:42;;;;;;;;;;;;;;;10.17;84.26;102391.78;7358765;19;19919;-65
2023/04/18 05:52:10;;;;;;;;;;;;;;;10.27;83.02;102395.41;7360034;19;19986;-65
2023/04/18 05:54:37;;;;;;;;;;;;;;;10.30;83.35;102394.38;7357543;19;20133;-67
2023/04/18 05:57:04;;;;;;;;;;;;;;;10.24;82.59;102403.53;7361172;19;19923;-64
2023/04/18 05:59:31;;;;;;;;;;;;;;;10.24;82.53;102402.69;7362188;19;19919;-65
2023/04/18 06:01:58;;;;;;;;;;;;;;;10.23;82.54;102409.75;7360510;19;19942;-65
2023/04/18 06:04:25;;;;;;;;;;;;;;;10.26;82.31;102403.41;7360840;19;19955;-65
2023/04/18 06:06:53;;;;;;;;;;;;;;;10.26;81.94;102400.78;7359251;19;19942;-64
2023/04/18 06:09:20;;;;;;;;;;;;;;;10.26;82.93;102392.88;7358848;19;19915;-64
2023/04/18 06:11:47;;;;;;;;;;;;;;;10.34;82.93;102400.25;7361563;19;19923;-65
2023/04/18 06:14:16;;;;;;;;;;;;;;;10.35;82.66;102391.41;7361561;19;19934;-64
2023/04/18 06:16:43;;;;;;;;;;;;;;;10.43;82.75;102396.94;7360248;19;19947;-65
2023/04/18 06:19:10;;;;;;;;;;;;;;;10.45;81.74;102384.50;7359318;19;19930;-65
2023/04/18 06:21:38;;;;;;;;;;;;;;;10.45;81.14;102381.88;7360386;19;19918;-65
2023/04/18 06:24:05;;;;;;;;;;;;;;;10.52;81.81;102385.72;7359603;19;19923;-64
2023/04/18 06:26:32;;;;;;;;;;;;;;;10.55;81.88;102386.34;7360755;19;19919;-64
2023/04/18 06:29:00;;;;;;;;;;;;;;;10.51;80.95;102386.69;7359566;19;19918;-65
2023/04/18 06:31:26;;;;;;;;;;;;;;;10.47;81.14;102382.59;7359823;19;19915;-65
2023/04/18 06:33:54;;;;;;;;;;;;;;;10.43;80.97;102383.78;7358291;19;20108;-65
2023/04/18 06:36:21;;;;;;;;;;;;;;;10.44;81.30;102388.94;7358737;19;20325;-66
2023/04/18 06:38:48;;;;;;;;;;;;;;;10.43;80.97;102381.97;7359905;19;20673;-66
2023/04/18 06:41:15;;;;;;;;;;;;;;;10.56;81.22;102388.03;7360360;19;19923;-65
2023/04/18 06:43:43;;;;;;;;;;;;;;;10.58;80.97;102401.06;7359532;19;19994;-65
2023/04/18 06:46:28;;;;;;;;;;;;;;;10.59;80.79;102394.84;7361400;19;19942;-64
2023/04/18 06:48:55;;;;;;;;;;;;;;;10.68;80.92;102405.53;7356100;19;19926;-64
2023/04/18 06:51:26;;;;;;;;;;;;;;;10.71;79.81;102402.69;7359037;19;20479;-64
2023/04/18 06:53:53;;;;;;;;;;;;;;;10.75;79.07;102399.81;7360228;19;19919;-66
2023/04/18 06:56:20;;;;;;;;;;;;;;;10.90;80.39;102388.13;7356579;19;19947;-66
2023/04/18 06:58:51;;;;;;;;;;;;;;;11.40;76.00;102410.59;7356312;19;19918;-65
2023/04/18 07:01:19;;;;;;;;;;;;;;;11.53;75.47;102401.59;7357901;19;19915;-67
2023/04/18 07:03:46;;;;;;;;;;;;;;;11.87;75.07;102410.38;7355399;19;19923;-64
2023/04/18 07:06:14;;;;;;;;;;;;;;;12.31;72.21;102405.94;7355038;19;19919;-65
2023/04/18 07:08:42;;;;;;;;;;;;;;;12.56;71.82;102412.69;7356060;19;19966;-65
2023/04/18 07:11:12;;;;;;;;;;;;;;;12.84;70.94;102397.09;7355272;19;19929;-68
2023/04/18 07:13:39;;;;;;;;;;;;;;;13.27;69.63;102394.31;7357790;19;19919;-65
2023/04/18 07:16:08;;;;;;;;;;;;;;;13.12;67.13;102410.63;7352533;19;20014;-65
2023/04/18 07:18:35;;;;;;;;;;;;;;;13.09;67.35;102382.63;7356465;19;19919;-64
2023/04/18 07:21:06;;;;;;;;;;;;;;;13.15;68.33;102390.09;7356870;19;19919;-65
2023/04/18 07:23:34;;;;;;;;;;;;;;;13.20;66.31;102385.25;7356536;19;19919;-64
2023/04/18 07:26:02;;;;;;;;;;;;;;;13.05;67.28;102389.16;7354032;19;20208;-65
2023/04/18 07:28:30;;;;;;;;;;;;;;;12.64;67.84;102387.34;7346631;19;19925;-64
2023/04/18 07:30:58;;;;;;;;;;;;;;;12.76;69.66;102388.09;7354868;19;20010;-66
2023/04/18 07:33:25;;;;;;;;;;;;;;;12.82;68.44;102387.59;7353284;19;19919;-65
2023/04/18 07:35:52;;;;;;;;;;;;;;;12.82;68.19;102385.78;7353551;19;19934;-68
2023/04/18 07:38:20;;;;;;;;;;;;;;;12.93;68.12;102384.91;7353667;19;19937;-67
2023/04/18 07:40:55;;;;;;;;;;;;;;;12.99;67.04;102386.19;7355077;19;20276;-65
2023/04/18 07:43:25;;;;;;;;;;;;;;;13.22;65.89;102393.84;7355343;19;19952;-65
2023/04/18 07:45:55;;;;;;;;;;;;;;;13.59;65.35;102380.94;7355980;19;19938;-64
2023/04/18 07:48:24;;;;;;;;;;;;;;;14.31;62.70;102390.44;7353563;19;19934;-65
2023/04/18 07:50:52;;;;;;;;;;;;;;;15.04;60.42;102389.00;7355405;19;20263;-64
2023/04/18 07:53:20;;;;;;;;;;;;;;;15.80;58.73;102395.84;7356507;19;20401;-66
2023/04/18 07:55:48;;;;;;;;;;;;;;;16.59;55.35;102396.88;7142121;19;4138191;-65
2023/04/18 07:58:15;;;;;;;;;;;;;;;16.81;53.52;102397.38;7357570;19;20282;-64
2023/04/18 08:00:43;;;;;;;;;;;;;;;16.60;53.01;102397.72;7357701;19;21175;-66
2023/04/18 08:03:11;;;;;;;;;;;;;;;16.43;54.41;102395.84;7355030;19;20674;-65
2023/04/18 08:05:40;;;;;;;;;;;;;;;16.49;54.48;102398.75;7355506;19;19914;-66
2023/04/18 08:08:11;;;;;;;;;;;;;;;16.55;54.38;102384.03;7357233;19;19999;-61
2023/04/18 08:10:39;;;;;;;;;;;;;;;16.74;53.82;102380.38;7354372;19;19919;-62
2023/04/18 08:13:07;;;;;;;;;;;;;;;16.60;53.32;102392.41;7356801;19;19934;-62
2023/04/18 08:15:34;;;;;;;;;;;;;;;16.20;53.26;102379.56;7357783;19;19919;-61
2023/04/18 08:18:02;;;;;;;;;;;;;;;15.52;55.74;102380.91;7356204;19;19919;-61
2023/04/18 08:20:29;;;;;;;;;;;;;;;15.18;56.89;102373.50;7356303;19;19947;-62
2023/04/18 08:22:57;;;;;;;;;;;;;;;14.84;58.07;102377.59;7358308;19;19940;-62
2023/04/18 08:25:35;;;;;;;;;;;;;;;14.32;58.72;102386.81;7355764;19;20982;-63
2023/04/18 08:28:02;;;;;;;;;;;;;;;13.87;59.43;102359.97;7358012;19;19922;-61
2023/04/18 08:30:30;;;;;;;;;;;;;;;13.32;61.75;102361.34;7356259;19;19940;-63
2023/04/18 08:32:59;;;;;;;;;;;;;;;13.37;61.88;102365.25;7356608;19;19994;-61
2023/04/18 08:35:26;;;;;;;;;;;;;;;13.21;62.08;102364.91;7348412;19;21002;-62
2023/04/18 08:37:54;;;;;;;;;;;;;;;13.14;61.49;102355.84;7356366;19;19923;-63
2023/04/18 08:40:25;;;;;;;;;;;;;;;13.14;61.28;102348.75;7347797;19;19927;-60
2023/04/18 08:42:53;;;;;;;;;;;;;;;12.99;61.13;102367.69;7347779;19;20471;-61
2023/04/18 08:45:20;;;;;;;;;;;;;;;12.80;61.82;102357.81;7355925;19;20384;-60
2023/04/18 08:47:47;;;;;;;;;;;;;;;12.68;61.72;102354.44;7351659;19;19954;-62
2023/04/18 08:50:16;;;;;;;;;;;;;;;12.79;62.40;102350.88;7352926;19;19947;-61
2023/04/18 08:55:15;;;;;;;;;;;;;;;12.80;61.49;102347.25;7354349;19;19931;-61
2023/04/18 08:57:43;;;;;;;;;;;;;;;12.83;61.89;102354.94;7356445;19;20322;-65
2023/04/18 09:00:11;;;;;;;;;;;;;;;12.72;61.69;102355.84;7355512;19;19949;-60
2023/04/18 09:02:41;;;;;;;;;;;;;;;12.69;62.15;102348.19;7354858;19;19918;-63
2023/04/18 09:05:10;;;;;;;;;;;;;;;12.57;62.26;102343.91;7326912;19;20315;-64
2023/04/18 09:07:37;;;;;;;;;;;;;;;12.65;62.53;102337.97;7346382;19;21842;-62
2023/04/18 09:10:05;;;;;;;;;;;;;;;12.77;61.96;102343.09;7348935;19;19982;-62
2023/04/18 09:12:33;;;;;;;;;;;;;;;12.84;60.44;102338.97;7351128;19;20002;-61
2023/04/18 09:15:05;;;;;;;;;;;;;;;12.95;60.36;102343.34;7348426;19;19923;-63
2023/04/18 09:17:42;;;;;;;;;;;;;;;13.13;59.64;102346.25;7346483;19;19938;-64
2023/04/18 09:20:22;;;;;;;;;;;;;;;13.10;59.34;102342.03;7352658;19;19918;-64
2023/04/18 09:22:51;;;;;;;;;;;;;;;13.19;59.25;102358.94;7355169;19;20641;-62
2023/04/18 09:25:22;;;;;;;;;;;;;;;13.01;60.23;102347.25;7349802;19;19922;-62
2023/04/18 09:27:53;;;;;;;;;;;;;;;12.90;60.77;102353.44;7347123;19;21202;-64
2023/04/18 09:30:23;;;;;;;;;;;;;;;12.99;60.78;102341.28;7349440;19;19952;-65
2023/04/18 09:32:56;;;;;;;;;;;;;;;12.95;61.05;102338.06;7349617;19;20541;-62
2023/04/18 09:35:25;;;;;;;;;;;;;;;12.99;61.73;102339.47;7344745;19;19938;-62
2023/04/18 09:37:52;;;;;;;;;;;;;;;13.04;61.23;102339.91;7347033;19;19990;-61
2023/04/18 09:40:20;;;;;;;;;;;;;;;13.09;60.83;102355.38;7348760;19;20368;-60
2023/04/18 09:42:47;;;;;;;;;;;;;;;13.14;61.35;102340.81;7350864;19;19942;-65
2023/04/18 09:45:15;;;;;;;;;;;;;;;13.02;61.60;102344.47;7347541;19;19929;-61
2023/04/18 09:47:44;;;;;;;;;;;;;;;13.01;61.87;102344.59;7347412;19;20490;-63
2023/04/18 09:50:11;;;;;;;;;;;;;;;12.97;62.05;102348.47;7346049;19;20263;-63
2023/04/18 09:52:40;;;;;;;;;;;;;;;12.94;61.26;102339.03;7354462;19;20165;-62
2023/04/18 09:55:09;;;;;;;;;;;;;;;12.85;60.84;102327.41;7353845;19;19919;-62
2023/04/18 09:58:00;;;;;;;;;;;;;;;12.93;60.66;102332.06;7354667;19;19915;-61
2023/04/18 10:00:29;;;;;;;;;;;;;;;13.01;61.14;102321.66;7355212;19;20605;-63
2023/04/18 10:02:58;;;;;;;;;;;;;;;13.12;61.20;102321.59;7352106;19;19923;-62
2023/04/18 10:05:30;;;;;;;;;;;;;;;13.10;60.73;102326.19;7350859;19;19918;-64
2023/04/18 10:08:00;;;;;;;;;;;;;;;13.05;61.30;102328.38;7349038;19;19943;-63
2023/04/18 10:10:32;;;;;;;;;;;;;;;12.92;62.16;102318.97;7353850;19;19919;-62
2023/04/18 10:13:00;;;;;;;;;;;;;;;12.80;62.70;102321.69;7354581;19;19919;-61
2023/04/18 10:15:29;;;;;;;;;;;;;;;12.70;62.38;102306.75;7353895;19;19922;-63
2023/04/18 10:17:58;;;;;;;;;;;;;;;12.72;63.22;102310.09;7352525;19;19933;-61
2023/04/18 10:20:32;;;;;;;;;;;;;;;12.76;62.74;102301.78;7355338;19;19918;-61
2023/04/18 10:23:21;;;;;;;;;;;;;;;12.73;61.57;102299.41;7353742;19;20519;-62
2023/04/18 10:25:50;;;;;;;;;;;;;;;12.78;62.33;102309.59;7353092;19;21680;-63
2023/04/18 10:28:19;;;;;;;;;;;;;;;12.85;61.36;102305.44;7353753;19;19923;-63
2023/04/18 10:30:48;;;;;;;;;;;;;;;12.73;61.86;102295.94;7353335;19;20512;-64
2023/04/18 10:33:19;;;;;;;;;;;;;;;12.76;62.02;102307.06;7354807;19;19918;-63
2023/04/18 10:35:57;;;;;;;;;;;;;;;12.62;61.26;102286.28;7352846;19;19919;-63
2023/04/18 10:38:27;;;;;;;;;;;;;;;12.64;61.47;102284.34;7353088;19;19919;-60
2023/04/18 10:40:57;;;;;;;;;;;;;;;12.67;61.29;102296.44;7348141;19;19929;-62
2023/04/18 10:43:24;;;;;;;;;;;;;;;12.76;61.26;102288.56;7355239;19;19930;-63
2023/04/18 10:45:55;;;;;;;;;;;;;;;12.87;61.25;102287.66;7352180;19;19926;-62
2023/04/18 10:48:24;;;;;;;;;;;;;;;12.93;61.19;102287.16;7352820;19;19919;-64
2023/04/18 10:50:55;;;;;;;;;;;;;;;12.88;60.82;102293.78;7353625;19;20016;-62
2023/04/18 10:53:22;;;;;;;;;;;;;;;12.79;61.15;102300.69;7352148;19;19923;-64
2023/04/18 10:55:53;;;;;;;;;;;;;;;12.79;61.12;102287.50;7350598;19;20387;-64
2023/04/18 10:58:21;;;;;;;;;;;;;;;12.89;60.89;102285.75;7352975;19;19923;-64
2023/04/18 11:00:50;;;;;;;;;;;;;;;12.91;60.55;102285.59;7352995;19;19918;-63
2023/04/18 11:03:17;;;;;;;;;;;;;;;12.98;60.57;102294.66;7353543;19;19942;-63
2023/04/18 11:05:45;;;;;;;;;;;;;;;13.06;60.74;102287.75;7355516;19;19998;-61
2023/04/18 11:08:16;;;;;;;;;;;;;;;13.11;59.54;102289.97;7356506;19;19919;-62
2023/04/18 11:10:55;;;;;;;;;;;;;;;13.04;59.91;102292.34;7352765;19;20227;-60
2023/04/18 11:13:23;;;;;;;;;;;;;;;13.09;59.70;102281.38;7355223;19;20016;-62
2023/04/18 11:15:51;;;;;;;;;;;;;;;13.07;60.38;102272.72;7356046;19;19925;-61
2023/04/18 11:18:18;;;;;;;;;;;;;;;12.98;60.84;102273.53;7355366;19;19961;-60
2023/04/18 11:20:48;;;;;;;;;;;;;;;12.99;61.31;102276.06;7359656;19;19933;-64
2023/04/18 11:23:18;;;;;;;;;;;;;;;12.94;61.67;102272.13;7360825;19;19921;-62
2023/04/18 11:25:48;;;;;;;;;;;;;;;12.83;62.11;102281.81;7358192;19;19915;-63
2023/04/18 11:28:18;;;;;;;;;;;;;;;12.83;62.28;102267.78;7334850;19;20676;-63
2023/04/18 11:30:45;;;;;;;;;;;;;;;12.79;61.98;102266.38;7352442;19;19922;-63
2023/04/18 11:33:14;;;;;;;;;;;;;;;12.75;62.28;102263.13;7353966;19;19915;-63
2023/04/18 11:35:42;;;;;;;;;;;;;;;12.68;62.35;102269.91;7349471;19;19953;-63
2023/04/18 11:38:10;;;;;;;;;;;;;;;12.57;63.21;102264.72;7355275;19;19919;-61
2023/04/18 11:40:37;;;;;;;;;;;;;;;12.44;63.46;102267.53;7345193;19;19938;-64
2023/04/18 11:43:05;;;;;;;;;;;;;;;12.57;63.23;102253.31;7356040;19;20373;-64
2023/04/18 11:45:33;;;;;;;;;;;;;;;12.53;63.11;102260.66;7350302;19;19915;-63
2023/04/18 11:48:00;;;;;;;;;;;;;;;12.43;62.15;102257.13;7335128;19;21505;-61
2023/04/18 11:50:37;;;;;;;;;;;;;;;12.31;62.35;102264.25;7348264;19;19929;-62
2023/04/18 11:53:07;;;;;;;;;;;;;;;12.30;62.58;102243.25;7352985;19;20332;-63
2023/04/18 11:55:38;;;;;;;;;;;;;;;12.30;62.97;102243.25;7346210;19;20027;-62
2023/04/18 11:58:06;;;;;;;;;;;;;;;12.42;62.93;102244.88;7351567;19;19961;-62
2023/04/18 12:00:36;;;;;;;;;;;;;;;12.49;62.85;102245.22;7349009;19;19915;-61
2023/04/18 12:03:04;;;;;;;;;;;;;;;12.58;63.03;102241.78;7346665;19;20014;-64
2023/04/18 12:05:33;;;;;;;;;;;;;;;12.67;62.36;102248.91;7349979;19;20023;-63
2023/04/18 12:08:05;;;;;;;;;;;;;;;12.70;61.44;102246.00;7346763;19;19918;-61
2023/04/18 12:10:32;;;;;;;;;;;;;;;12.79;61.25;102245.22;7350312;19;19929;-61
2023/04/18 12:12:59;;;;;;;;;;;;;;;12.83;60.87;102247.47;7350601;19;19947;-63
2023/04/18 12:15:28;;;;;;;;;;;;;;;12.81;60.54;102251.19;7349303;19;19925;-63
2023/04/18 12:18:01;;;;;;;;;;;;;;;12.64;60.96;102235.97;7349979;19;19915;-61
2023/04/18 12:20:48;;;;;;;;;;;;;;;12.77;60.89;102247.16;7355539;19;19949;-63
2023/04/18 12:23:19;;;;;;;;;;;;;;;12.83;61.17;102244.00;7357383;19;19918;-62
2023/04/18 12:25:57;;;;;;;;;;;;;;;12.91;61.04;102253.88;7353424;19;19927;-63
2023/04/18 12:28:25;;;;;;;;;;;;;;;13.01;60.28;102250.31;7350894;19;19990;-64
2023/04/18 12:30:52;;;;;;;;;;;;;;;13.01;60.86;102245.03;7351333;19;19929;-64
2023/04/18 12:33:19;;;;;;;;;;;;;;;12.78;61.24;102247.03;7352123;19;19915;-62
2023/04/18 12:35:47;;;;;;;;;;;;;;;12.74;61.76;102244.78;7354362;19;19943;-62
2023/04/18 12:38:18;;;;;;;;;;;;;;;12.66;62.72;102249.88;7355563;19;21428;-62
2023/04/18 12:40:45;;;;;;;;;;;;;;;12.41;63.60;102227.38;7351077;19;19969;-60
2023/04/18 12:43:13;;;;;;;;;;;;;;;12.56;63.58;102246.34;7316443;19;19922;-62